Archival Weather

Snohomish County (Paine Fld)

Everett, Washington (KPAE)

Report from: Sunday, November 5, 2023 11:53 PM PST
Current time: Monday, June 24, 2024 3:46 AM PDT

Current weather – Weather history – Daily summaries
Weather forecast

Temperature10.6°C (51.1°F)
Dew point7.8°C (46.0°F)
Winds 5 kts (2.6 m/s, 5.8 mph) Southeast (140°)
Visibility10 mi. (16.1 km)
Clouds Ceiling: Overcast 3,500 ft. (1,067 m)
Altimeter29.64 in.Hg (1004 mB)
PrecipitiationTrace
Precip. events Rain ended 7:14 AM
Relative humidity83 %
Density altitude-52 ft. (-16 m)
Sea-level pressure100.4 kPa (1004 mB, 29.64 in.Hg)
Max temp last 24 hours14.4°C (57.9°F)
Min temp last 24 hours10.6°C (51.1°F)
Remarks Fully automated report
Automated weather observing station with precipitation discriminator
Flight conditions Visual Meteorological Conditions
Raw dataKPAE 060753Z AUTO 14005KT 10SM OVC035 11/08 A2964 RMK AO2 RAE14 SLP038 P0000 T01060078 401440106
An error has occurred. This application may no longer respond until reloaded. Reload 🗙